Time;durP1;ratioP1;P1;durP2;ratioP2;P2;SDS_P1;SDS_P2;PMS_P1;PMS_P2;Temp;Humidity;BMP_temperature;BMP_pressure;BME280_temperature;BME280_humidity;BME280_pressure;Samples;Min_cycle;Max_cycle;Signal;HPM_P1;HPM_P2
2022/12/07 00:01:30;;;;;;;;;49.00;36.00;;;;;5.68;100.00;101912.09;5077773;28;46618;-72
2022/12/07 00:04:04;;;;;;;;;42.00;34.25;;;;;5.66;100.00;101898.03;5077158;28;45421;-72
2022/12/07 00:06:29;;;;;;;;;37.25;27.75;;;;;5.62;100.00;101903.94;5078201;28;45329;-72
2022/12/07 00:08:55;;;;;;;;;44.25;37.50;;;;;5.59;100.00;101906.38;5078888;28;45478;-73
2022/12/07 00:11:21;;;;;;;;;52.00;38.00;;;;;5.57;100.00;101908.06;5077399;28;58904;-71
2022/12/07 00:13:51;;;;;;;;;48.25;39.50;;;;;5.51;100.00;101900.78;5077768;28;45480;-73
2022/12/07 00:16:18;;;;;;;;;56.50;40.25;;;;;5.54;100.00;101894.81;5077652;28;45334;-73
2022/12/07 00:18:44;;;;;;;;;61.00;42.75;;;;;5.56;100.00;101900.13;5077404;28;45490;-71
2022/12/07 00:21:11;;;;;;;;;48.75;40.00;;;;;5.55;100.00;101885.25;5078290;28;46440;-72
2022/12/07 00:23:38;;;;;;;;;51.25;40.25;;;;;5.57;100.00;101894.94;5073545;28;45848;-72
2022/12/07 00:26:08;;;;;;;;;58.25;41.50;;;;;5.60;100.00;101891.59;5075867;28;45485;-72
2022/12/07 00:28:33;;;;;;;;;51.00;41.00;;;;;5.61;100.00;101888.16;5077276;28;45446;-72
2022/12/07 00:31:08;;;;;;;;;54.50;36.75;;;;;5.68;100.00;101893.75;5077341;28;46208;-72
2022/12/07 00:33:34;;;;;;;;;51.50;40.75;;;;;5.70;100.00;101902.59;5077180;28;45642;-73
2022/12/07 00:36:00;;;;;;;;;46.50;31.75;;;;;5.69;100.00;101890.28;5077096;28;46576;-72
2022/12/07 00:38:29;;;;;;;;;47.75;41.75;;;;;5.66;100.00;101884.03;5077006;28;45466;-72
2022/12/07 00:40:56;;;;;;;;;42.50;32.25;;;;;5.73;100.00;101884.38;5074149;28;45693;-72
2022/12/07 00:43:21;;;;;;;;;58.00;43.50;;;;;5.78;100.00;101889.84;5076133;28;45494;-73
2022/12/07 00:45:47;;;;;;;;;49.00;40.25;;;;;5.75;100.00;101873.97;5076834;28;45706;-74
2022/12/07 00:48:12;;;;;;;;;52.50;40.50;;;;;5.83;100.00;101895.31;5077605;28;55452;-72
2022/12/07 00:50:37;;;;;;;;;49.75;42.50;;;;;5.84;100.00;101886.59;5076693;28;61565;-72
2022/12/07 00:53:03;;;;;;;;;50.50;40.50;;;;;5.88;100.00;101892.06;5071602;28;51412;-72
2022/12/07 00:55:32;;;;;;;;;52.00;39.25;;;;;5.84;100.00;101892.75;5077683;28;46915;-72
2022/12/07 00:57:57;;;;;;;;;48.00;37.50;;;;;5.90;100.00;101893.03;5076888;28;45499;-72
2022/12/07 01:00:22;;;;;;;;;51.75;36.50;;;;;5.85;100.00;101891.00;5078180;28;59411;-74
2022/12/07 01:02:48;;;;;;;;;42.25;33.75;;;;;5.84;100.00;101886.59;5074275;28;60170;-72
2022/12/07 01:05:13;;;;;;;;;45.25;39.50;;;;;5.75;100.00;101887.06;5077248;28;52994;-73
2022/12/07 01:07:38;;;;;;;;;46.25;34.50;;;;;5.63;100.00;101879.53;5076518;28;51578;-72
2022/12/07 01:10:04;;;;;;;;;44.75;32.50;;;;;5.44;100.00;101875.13;5076779;28;64474;-74
2022/12/07 01:12:30;;;;;;;;;40.00;30.25;;;;;5.44;100.00;101880.38;5077029;28;45644;-74
2022/12/07 01:14:55;;;;;;;;;48.50;39.00;;;;;5.41;100.00;101868.84;5076098;28;54955;-72
2022/12/07 01:17:20;;;;;;;;;38.00;33.00;;;;;5.43;100.00;101875.03;5075801;28;45401;-72
2022/12/07 01:19:46;;;;;;;;;36.25;31.75;;;;;5.36;100.00;101871.22;5075551;28;57561;-73
2022/12/07 01:22:11;;;;;;;;;47.75;29.75;;;;;5.36;100.00;101879.09;5071608;28;56828;-73
2022/12/07 01:24:36;;;;;;;;;31.00;27.25;;;;;5.34;100.00;101870.28;5076256;28;54408;-72
2022/12/07 01:27:02;;;;;;;;;45.25;29.25;;;;;5.37;100.00;101886.13;5075510;28;45456;-72
2022/12/07 01:29:27;;;;;;;;;28.25;21.25;;;;;5.42;100.00;101883.72;5074555;28;46728;-72
2022/12/07 01:31:52;;;;;;;;;32.75;27.00;;;;;5.37;100.00;101879.97;5077022;28;45385;-73
2022/12/07 01:34:18;;;;;;;;;33.75;23.50;;;;;5.39;100.00;101880.97;5076614;28;48509;-73
2022/12/07 01:36:43;;;;;;;;;40.50;30.75;;;;;5.37;100.00;101883.50;5076487;28;54946;-75
2022/12/07 01:39:09;;;;;;;;;36.00;24.25;;;;;5.35;100.00;101873.78;5076743;28;46437;-71
2022/12/07 01:41:39;;;;;;;;;35.00;24.50;;;;;5.37;100.00;101865.16;5075762;28;45367;-73
2022/12/07 01:44:25;;;;;;;;;30.50;24.75;;;;;5.33;100.00;101855.38;5077090;28;45406;-72
2022/12/07 01:46:53;;;;;;;;;30.50;26.00;;;;;5.35;100.00;101856.34;5076675;28;45459;-72
2022/12/07 01:49:35;;;;;;;;;30.25;23.75;;;;;5.33;100.00;101859.72;5041552;28;46458;-72
2022/12/07 01:52:16;;;;;;;;;23.75;19.00;;;;;5.36;100.00;101865.09;5068982;28;45256;-72
2022/12/07 01:54:44;;;;;;;;;25.25;22.50;;;;;5.36;100.00;101866.00;5075041;28;45356;-72
2022/12/07 01:57:11;;;;;;;;;33.75;20.25;;;;;5.35;100.00;101850.22;5075269;28;45403;-72
2022/12/07 01:59:36;;;;;;;;;28.75;19.75;;;;;5.36;100.00;101850.28;5074274;28;61628;-73
2022/12/07 02:02:04;;;;;;;;;31.00;20.50;;;;;5.35;100.00;101852.84;5054330;28;45481;-72
2022/12/07 02:04:30;;;;;;;;;26.50;21.25;;;;;5.34;100.00;101854.56;5053281;28;45575;-72
2022/12/07 02:06:57;;;;;;;;;30.00;18.00;;;;;5.40;100.00;101859.19;5076457;28;45323;-72
2022/12/07 02:09:22;;;;;;;;;21.25;19.75;;;;;5.41;100.00;101860.97;5076859;28;46335;-73
2022/12/07 02:11:48;;;;;;;;;26.50;18.00;;;;;5.39;100.00;101844.31;5075868;28;45457;-72
2022/12/07 02:14:13;;;;;;;;;22.50;18.25;;;;;5.44;100.00;101856.81;5076527;28;56739;-72
2022/12/07 02:16:45;;;;;;;;;19.25;16.00;;;;;5.32;100.00;101837.84;5074975;28;54684;-72
2022/12/07 02:19:43;;;;;;;;;31.25;26.25;;;;;5.47;100.00;101864.78;5076281;28;46289;-72
2022/12/07 02:22:33;;;;;;;;;28.75;20.75;;;;;5.47;100.00;101864.78;5074859;28;45364;-72
2022/12/07 02:25:27;;;;;;;;;24.25;17.50;;;;;5.49;100.00;101870.13;5075954;28;45457;-72
2022/12/07 02:28:05;;;;;;;;;22.00;18.00;;;;;5.49;100.00;101864.88;5037474;28;45619;-73
2022/12/07 02:30:37;;;;;;;;;31.25;21.00;;;;;5.50;100.00;101858.81;5056497;28;45808;-73
2022/12/07 02:33:25;;;;;;;;;25.75;22.50;;;;;5.50;100.00;101858.81;5068012;28;45371;-73
2022/12/07 02:35:59;;;;;;;;;25.00;23.50;;;;;5.49;100.00;101855.31;5054834;28;45355;-72
2022/12/07 02:38:33;;;;;;;;;23.75;15.00;;;;;5.45;100.00;101848.13;5065827;28;45474;-72
2022/12/07 02:41:10;;;;;;;;;27.50;20.00;;;;;5.46;100.00;101851.63;5075899;28;46369;-72
2022/12/07 02:43:42;;;;;;;;;25.50;19.00;;;;;5.51;100.00;101844.88;5064488;28;45579;-73
2022/12/07 02:46:14;;;;;;;;;31.25;23.50;;;;;5.53;100.00;101848.47;5057135;28;45506;-72
2022/12/07 02:48:41;;;;;;;;;24.00;17.00;;;;;5.49;100.00;101838.69;5055651;28;45378;-73
2022/12/07 02:51:06;;;;;;;;;26.00;17.50;;;;;5.53;100.00;101846.75;5075746;28;46543;-74
2022/12/07 02:53:42;;;;;;;;;25.25;19.75;;;;;5.56;100.00;101845.13;5074930;28;62026;-72
2022/12/07 02:56:18;;;;;;;;;27.00;19.75;;;;;5.57;100.00;101852.13;5075016;28;45570;-72
2022/12/07 02:58:58;;;;;;;;;23.50;20.25;;;;;5.57;100.00;101849.53;5075318;28;45262;-71
2022/12/07 03:01:42;;;;;;;;;22.75;16.25;;;;;5.56;100.00;101847.72;5075802;28;45371;-71
2022/12/07 03:04:27;;;;;;;;;32.50;23.25;;;;;5.53;100.00;101838.88;5070163;28;45405;-73
2022/12/07 03:07:31;;;;;;;;;30.25;21.25;;;;;5.52;100.00;101844.06;5055009;28;45463;-73
2022/12/07 03:10:00;;;;;;;;;30.75;23.00;;;;;5.50;100.00;101843.09;5068986;28;45354;-73
2022/12/07 03:12:32;;;;;;;;;16.75;11.50;;;;;5.45;100.00;101836.75;5074058;28;45588;-71
2022/12/07 03:15:07;;;;;;;;;28.25;23.25;;;;;5.49;100.00;101846.56;5057686;28;45378;-73
2022/12/07 03:17:35;;;;;;;;;22.50;14.25;;;;;5.37;100.00;101830.22;5074390;28;45524;-72
2022/12/07 03:20:04;;;;;;;;;21.25;17.25;;;;;5.39;100.00;101841.69;5072771;28;45516;-73
2022/12/07 03:22:31;;;;;;;;;33.00;20.75;;;;;5.43;100.00;101846.22;5056900;28;47805;-73
2022/12/07 03:24:59;;;;;;;;;21.75;15.25;;;;;5.36;100.00;101837.19;5057083;28;45416;-72
2022/12/07 03:27:30;;;;;;;;;18.00;12.25;;;;;5.39;100.00;101834.72;5067067;28;45447;-74
2022/12/07 03:30:07;;;;;;;;;12.75;12.75;;;;;5.35;100.00;101837.13;5071409;28;45378;-72
2022/12/07 03:32:43;;;;;;;;;19.50;15.75;;;;;5.30;100.00;101842.13;5054910;28;46261;-72
2022/12/07 03:35:16;;;;;;;;;17.00;15.25;;;;;5.29;100.00;101829.88;5054272;28;45643;-73
2022/12/07 03:37:54;;;;;;;;;18.25;15.50;;;;;5.24;100.00;101823.50;5074902;28;45529;-73
2022/12/07 03:40:28;;;;;;;;;19.00;14.00;;;;;5.17;100.00;101813.59;5073739;28;45166;-72
2022/12/07 03:42:55;;;;;;;;;16.25;13.25;;;;;5.19;100.00;101819.78;5056690;28;45376;-73
2022/12/07 03:45:24;;;;;;;;;24.00;17.00;;;;;5.18;100.00;101818.00;5056629;28;45326;-72
2022/12/07 03:48:08;;;;;;;;;19.75;16.00;;;;;5.18;100.00;101810.13;5056861;28;45508;-72
2022/12/07 03:50:42;;;;;;;;;24.75;16.25;;;;;5.14;100.00;101811.69;5074448;28;45455;-74
2022/12/07 03:53:16;;;;;;;;;26.75;19.50;;;;;5.13;100.00;101819.47;5059098;28;46302;-72
2022/12/07 03:55:44;;;;;;;;;23.50;15.75;;;;;5.12;100.00;101817.69;5060645;28;45470;-73
2022/12/07 03:58:12;;;;;;;;;21.25;15.50;;;;;5.12;100.00;101817.69;5061069;28;45440;-73
2022/12/07 04:00:38;;;;;;;;;28.75;16.00;;;;;5.13;100.00;101814.25;5057042;28;45461;-72
2022/12/07 04:03:03;;;;;;;;;29.25;18.50;;;;;5.19;100.00;101815.44;5077935;28;45605;-73
2022/12/07 04:05:29;;;;;;;;;21.25;16.00;;;;;5.18;100.00;101807.50;5074328;28;46432;-71
2022/12/07 04:07:54;;;;;;;;;23.00;14.25;;;;;5.23;100.00;101822.63;5078180;28;56569;-71
2022/12/07 04:10:19;;;;;;;;;14.25;12.00;;;;;5.24;100.00;101823.50;5076339;28;45558;-71
2022/12/07 04:12:45;;;;;;;;;19.25;14.75;;;;;5.20;100.00;101825.06;5072580;28;51541;-73
2022/12/07 04:15:10;;;;;;;;;20.00;18.00;;;;;5.23;100.00;101820.00;5072535;28;59409;-72
2022/12/07 04:17:36;;;;;;;;;18.00;15.50;;;;;5.21;100.00;101810.25;5078530;28;46331;-72
2022/12/07 04:20:03;;;;;;;;;22.50;16.00;;;;;5.21;100.00;101824.25;5073706;28;45472;-72
2022/12/07 04:22:29;;;;;;;;;16.75;14.50;;;;;5.17;100.00;101819.72;5059379;28;45634;-72
2022/12/07 04:24:54;;;;;;;;;21.25;15.00;;;;;5.17;100.00;101824.94;5077722;28;55794;-72
2022/12/07 04:27:19;;;;;;;;;16.00;13.75;;;;;5.16;100.00;101820.50;5076746;28;50446;-72
2022/12/07 04:29:45;;;;;;;;;21.00;18.00;;;;;5.12;100.00;101821.19;5077635;28;52799;-72
2022/12/07 04:32:10;;;;;;;;;22.50;16.50;;;;;5.20;100.00;101811.97;5076800;28;64330;-72
2022/12/07 04:34:36;;;;;;;;;26.25;15.25;;;;;5.21;100.00;101826.88;5076308;28;48339;-71
2022/12/07 04:37:01;;;;;;;;;25.50;18.25;;;;;5.25;100.00;101815.72;5077844;28;55841;-73
2022/12/07 04:39:28;;;;;;;;;20.50;13.75;;;;;5.23;100.00;101804.28;5077512;28;45383;-73
2022/12/07 04:41:54;;;;;;;;;20.50;15.25;;;;;5.30;100.00;101820.28;5076976;28;46249;-72
2022/12/07 04:44:20;;;;;;;;;19.75;13.00;;;;;5.31;100.00;101816.84;5058780;28;45502;-73
2022/12/07 04:46:46;;;;;;;;;20.00;12.00;;;;;5.29;100.00;101805.41;5077365;28;45312;-73
2022/12/07 04:49:12;;;;;;;;;22.00;17.75;;;;;5.31;100.00;101809.00;5052886;28;45355;-73
2022/12/07 04:51:37;;;;;;;;;17.75;13.50;;;;;5.29;100.00;101802.78;5076899;28;45213;-73
2022/12/07 04:54:03;;;;;;;;;16.50;13.25;;;;;5.29;100.00;101802.78;5076405;28;45538;-72
2022/12/07 04:56:29;;;;;;;;;21.50;17.75;;;;;5.23;100.00;101791.19;5055960;28;45350;-73
2022/12/07 04:58:54;;;;;;;;;15.25;15.00;;;;;5.09;100.00;101781.78;5075083;28;45395;-73
2022/12/07 05:01:21;;;;;;;;;18.75;14.50;;;;;5.18;100.00;101794.41;5077610;28;45734;-72
2022/12/07 05:03:47;;;;;;;;;15.50;14.50;;;;;5.16;100.00;101789.09;5076985;28;45350;-72
2022/12/07 05:06:13;;;;;;;;;14.50;11.00;;;;;5.19;100.00;101799.72;5077489;28;45504;-73
2022/12/07 05:08:38;;;;;;;;;17.75;15.25;;;;;5.17;100.00;101800.50;5074622;28;45420;-73
2022/12/07 05:11:04;;;;;;;;;21.00;12.50;;;;;5.15;100.00;101804.72;5076624;28;45834;-72
2022/12/07 05:13:30;;;;;;;;;16.50;14.75;;;;;5.13;100.00;101802.06;5056577;28;45589;-72
2022/12/07 05:15:56;;;;;;;;;14.00;9.75;;;;;5.12;100.00;101805.50;5076589;28;45471;-73
2022/12/07 05:18:21;;;;;;;;;14.25;11.50;;;;;5.12;100.00;101805.50;5077989;28;45608;-73
2022/12/07 05:20:46;;;;;;;;;19.25;13.75;;;;;5.18;100.00;101805.78;5073729;28;48380;-72
2022/12/07 05:23:12;;;;;;;;;19.00;13.75;;;;;5.25;100.00;101810.50;5077153;28;55015;-72
2022/12/07 05:25:37;;;;;;;;;17.00;13.00;;;;;5.24;100.00;101799.94;5076887;28;45331;-72
2022/12/07 05:28:04;;;;;;;;;15.25;13.00;;;;;5.29;100.00;101819.41;5076665;28;45398;-72
2022/12/07 05:30:29;;;;;;;;;21.25;13.25;;;;;5.33;100.00;101815.22;5074905;28;45950;-73
2022/12/07 05:32:55;;;;;;;;;19.25;14.75;;;;;5.35;100.00;101810.94;5074275;28;45300;-72
2022/12/07 05:35:20;;;;;;;;;26.75;15.25;;;;;5.31;100.00;101812.50;5072582;28;57645;-74
2022/12/07 05:37:46;;;;;;;;;21.50;12.75;;;;;5.36;100.00;101813.63;5064488;28;45364;-72
2022/12/07 05:40:13;;;;;;;;;19.25;16.00;;;;;5.37;100.00;101810.16;5063984;28;62491;-73
2022/12/07 05:42:39;;;;;;;;;21.00;15.25;;;;;5.33;100.00;101807.34;5074853;28;45334;-73
2022/12/07 05:45:05;;;;;;;;;17.00;15.00;;;;;5.36;100.00;101808.38;5069753;28;45533;-72
2022/12/07 05:47:31;;;;;;;;;19.00;15.50;;;;;5.32;100.00;101803.81;5076175;28;45305;-74
2022/12/07 05:49:56;;;;;;;;;19.25;12.50;;;;;5.38;100.00;101821.53;5075276;28;46339;-73
2022/12/07 05:52:22;;;;;;;;;27.00;14.25;;;;;5.38;100.00;101811.06;5073197;28;58112;-72
2022/12/07 05:54:47;;;;;;;;;23.50;14.50;;;;;5.33;100.00;101794.28;5072533;28;46380;-71
2022/12/07 05:57:12;;;;;;;;;20.25;16.25;;;;;5.39;100.00;101812.88;5073050;28;51674;-71
2022/12/07 05:59:38;;;;;;;;;18.00;14.00;;;;;5.40;100.00;101809.44;5071726;28;62605;-71
2022/12/07 06:02:06;;;;;;;;;18.25;16.75;;;;;5.36;100.00;101797.91;5073751;28;59615;-71
2022/12/07 06:04:33;;;;;;;;;16.00;12.25;;;;;5.45;100.00;101814.06;5070802;28;45621;-73
2022/12/07 06:06:59;;;;;;;;;16.50;13.00;;;;;5.48;100.00;101810.69;5073501;28;46578;-72
2022/12/07 06:09:26;;;;;;;;;16.00;12.25;;;;;5.45;100.00;101797.47;5074384;28;46634;-75
2022/12/07 06:14:35;;;;;;;;;17.25;12.00;;;;;5.55;100.00;101801.41;5072064;28;45648;-73
2022/12/07 06:17:01;;;;;;;;;21.75;16.00;;;;;5.54;100.00;101805.75;5071194;28;45438;-73
2022/12/07 06:19:27;;;;;;;;;25.50;14.00;;;;;5.52;100.00;101791.66;5063319;28;47171;-72
2022/12/07 06:21:52;;;;;;;;;20.75;13.25;;;;;5.60;100.00;101802.53;5068815;28;45454;-73
2022/12/07 06:24:18;;;;;;;;;26.25;16.00;;;;;5.58;100.00;101793.69;5074167;28;46500;-74
2022/12/07 06:26:44;;;;;;;;;12.75;12.00;;;;;5.58;100.00;101789.34;5066664;28;45910;-72
2022/12/07 06:29:10;;;;;;;;;12.25;12.00;;;;;5.58;100.00;101798.91;5059153;28;46451;-72
2022/12/07 06:31:36;;;;;;;;;17.50;12.25;;;;;5.58;100.00;101797.19;5072375;28;45946;-73
2022/12/07 06:34:07;;;;;;;;;20.50;14.00;;;;;5.60;100.00;101806.03;5074205;28;45509;-72
2022/12/07 06:36:32;;;;;;;;;13.25;12.75;;;;;5.60;100.00;101807.75;5071046;28;45634;-73
2022/12/07 06:38:58;;;;;;;;;17.25;12.00;;;;;5.55;100.00;101798.78;5064159;28;62333;-72
2022/12/07 06:41:24;;;;;;;;;15.75;12.75;;;;;5.58;100.00;101815.53;5067215;28;47134;-72
2022/12/07 06:43:49;;;;;;;;;23.00;17.00;;;;;5.54;100.00;101803.13;5060001;28;47426;-72
2022/12/07 06:46:15;;;;;;;;;20.00;15.75;;;;;5.53;100.00;101810.06;5060156;28;45359;-72
2022/12/07 06:48:41;;;;;;;;;21.50;14.50;;;;;5.55;100.00;101809.28;5064786;28;47223;-72
2022/12/07 06:51:07;;;;;;;;;20.25;16.75;;;;;5.62;100.00;101809.63;5062948;28;45466;-72
2022/12/07 06:53:32;;;;;;;;;14.75;14.75;;;;;5.60;100.00;101807.75;5065784;28;45438;-72
2022/12/07 06:55:58;;;;;;;;;24.50;16.00;;;;;5.62;100.00;101807.00;5064626;28;45412;-73
2022/12/07 06:58:23;;;;;;;;;18.25;13.75;;;;;5.71;100.00;101810.06;5061916;28;60343;-73
2022/12/07 07:00:49;;;;;;;;;16.25;16.25;;;;;5.73;100.00;101800.53;5070878;28;45506;-72
2022/12/07 07:03:15;;;;;;;;;25.25;16.25;;;;;5.75;100.00;101805.81;5071957;28;45336;-72
2022/12/07 07:05:41;;;;;;;;;19.50;15.25;;;;;5.78;100.00;101800.75;5070297;28;51400;-72
2022/12/07 07:08:06;;;;;;;;;16.25;15.00;;;;;5.79;100.00;101800.81;5071871;27;47472;-72
2022/12/07 07:10:32;;;;;;;;;21.00;17.00;;;;;5.81;100.00;101802.63;5072801;28;58463;-72
2022/12/07 07:12:57;;;;;;;;;17.25;13.50;;;;;5.81;100.00;101807.88;5074662;28;54136;-72
2022/12/07 07:15:22;;;;;;;;;13.25;12.25;;;;;5.73;100.00;101795.28;5074238;28;45561;-72
2022/12/07 07:17:48;;;;;;;;;16.00;14.00;;;;;5.79;100.00;101803.41;5074851;28;46267;-72
2022/12/07 07:20:13;;;;;;;;;13.75;13.00;;;;;5.72;100.00;101801.34;5066929;28;54311;-72
2022/12/07 07:22:39;;;;;;;;;20.50;16.00;;;;;5.81;100.00;101811.38;5074760;28;45843;-73
2022/12/07 07:25:04;;;;;;;;;26.25;14.50;;;;;5.78;100.00;101806.88;5075076;28;45609;-73
2022/12/07 07:27:29;;;;;;;;;22.50;17.25;;;;;5.72;100.00;101795.22;5077777;28;46148;-73
2022/12/07 07:29:55;;;;;;;;;22.00;16.75;;;;;5.74;100.00;101801.41;5077834;28;57783;-73
2022/12/07 07:32:21;;;;;;;;;24.75;15.75;;;;;5.80;100.00;101814.78;5077943;28;56677;-73
2022/12/07 07:34:47;;;;;;;;;19.50;13.00;;;;;5.81;100.00;101815.72;5077226;28;45416;-73
2022/12/07 07:37:13;;;;;;;;;14.50;12.50;;;;;5.81;100.00;101805.25;5078414;28;48568;-73
2022/12/07 07:39:38;;;;;;;;;23.25;17.00;;;;;5.83;100.00;101803.56;5077424;28;45358;-72
2022/12/07 07:42:04;;;;;;;;;25.00;17.00;;;;;5.71;100.00;101780.34;5073184;28;45548;-73
2022/12/07 07:44:29;;;;;;;;;19.50;16.25;;;;;5.87;100.00;101813.38;5072746;28;45505;-74
2022/12/07 07:46:54;;;;;;;;;27.00;15.50;;;;;5.86;100.00;101811.56;5074207;28;60180;-73
2022/12/07 07:49:20;;;;;;;;;18.75;15.00;;;;;5.88;100.00;101815.16;5055423;28;57841;-73
2022/12/07 07:51:45;;;;;;;;;21.50;18.25;;;;;5.85;100.00;101796.66;5066575;28;45597;-73
2022/12/07 07:54:11;;;;;;;;;22.75;20.25;;;;;5.86;100.00;101807.25;5078249;28;45425;-73
2022/12/07 07:56:36;;;;;;;;;22.50;19.75;;;;;5.87;100.00;101800.28;5073792;28;47281;-73
2022/12/07 07:59:01;;;;;;;;;28.50;23.25;;;;;5.88;100.00;101807.31;5069694;28;57323;-72
2022/12/07 08:01:27;;;;;;;;;31.00;24.00;;;;;5.90;100.00;101808.25;5069997;28;50840;-72
2022/12/07 08:03:52;;;;;;;;;23.50;19.25;;;;;5.93;100.00;101811.97;5073444;28;49579;-73
2022/12/07 08:06:17;;;;;;;;;27.00;19.00;;;;;5.99;100.00;101830.59;5072163;28;46711;-73
2022/12/07 08:08:43;;;;;;;;;15.75;13.50;;;;;5.96;100.00;101811.19;5071612;28;45502;-72
2022/12/07 08:11:09;;;;;;;;;24.25;16.50;;;;;5.99;100.00;101817.47;5074102;28;56416;-72
2022/12/07 08:13:35;;;;;;;;;19.00;17.25;;;;;5.95;100.00;101822.50;5074191;28;45567;-72
2022/12/07 08:16:06;;;;;;;;;18.25;15.00;;;;;5.88;100.00;101818.69;5073595;28;46684;-72
2022/12/07 08:18:35;;;;;;;;;16.75;16.25;;;;;5.94;100.00;101825.97;5070276;28;45462;-72
2022/12/07 08:21:00;;;;;;;;;25.50;16.50;;;;;5.92;100.00;101818.03;5074957;28;45374;-72
2022/12/07 08:23:26;;;;;;;;;21.00;14.75;;;;;5.95;100.00;101828.63;5075441;28;45292;-72
2022/12/07 08:25:52;;;;;;;;;23.50;17.25;;;;;5.95;100.00;101827.75;5070801;28;46545;-72
2022/12/07 08:28:17;;;;;;;;;20.75;20.25;;;;;5.93;100.00;101821.56;5071814;28;60247;-72
2022/12/07 08:30:42;;;;;;;;;26.00;19.50;;;;;5.97;100.00;101828.72;5072769;28;45450;-72
2022/12/07 08:33:09;;;;;;;;;22.75;19.50;;;;;6.02;100.00;101835.09;5073879;28;54250;-73
2022/12/07 08:35:35;;;;;;;;;26.75;20.50;;;;;6.08;100.00;101829.22;5071526;28;47387;-72
2022/12/07 08:38:02;;;;;;;;;20.75;17.25;;;;;6.12;100.00;101837.25;5056611;28;45495;-72
2022/12/07 08:40:27;;;;;;;;;28.75;23.50;;;;;6.16;100.00;101843.56;5070193;28;45504;-73
2022/12/07 08:42:53;;;;;;;;;17.25;14.75;;;;;6.19;100.00;101844.59;5070341;28;45485;-73
2022/12/07 08:45:20;;;;;;;;;25.25;20.00;;;;;6.22;100.00;101835.97;5070665;28;47216;-73
2022/12/07 08:47:49;;;;;;;;;25.25;17.50;;;;;6.27;100.00;101840.56;5051640;28;45508;-73
2022/12/07 08:50:15;;;;;;;;;20.50;18.25;;;;;6.30;100.00;101839.84;5072427;28;45688;-72
2022/12/07 08:52:41;;;;;;;;;27.50;21.25;;;;;6.34;100.00;101848.72;5075344;28;45151;-73
2022/12/07 08:55:09;;;;;;;;;18.25;15.25;;;;;6.35;100.00;101840.03;5057044;28;47449;-72
2022/12/07 08:57:35;;;;;;;;;29.50;18.50;;;;;6.37;100.00;101836.66;5056793;28;45320;-72
2022/12/07 09:00:01;;;;;;;;;25.25;17.00;;;;;6.37;100.00;101833.13;5066174;28;53932;-73
2022/12/07 09:02:26;;;;;;;;;24.25;20.25;;;;;6.32;100.00;101821.53;5070452;28;45597;-73
2022/12/07 09:04:52;;;;;;;;;29.00;20.00;;;;;6.39;100.00;101827.13;5073895;28;47247;-73
2022/12/07 09:07:17;;;;;;;;;30.00;23.50;;;;;6.43;100.00;101829.03;5070023;28;58578;-73
2022/12/07 09:09:42;;;;;;;;;25.00;23.25;;;;;6.41;100.00;101812.34;5051170;28;54381;-74
2022/12/07 09:12:08;;;;;;;;;32.00;17.25;;;;;6.49;100.00;101828.41;5067139;28;54777;-74
2022/12/07 09:14:34;;;;;;;;;34.75;21.25;;;;;6.48;100.00;101822.25;5068991;28;46883;-74
2022/12/07 09:17:10;;;;;;;;;27.50;24.25;;;;;6.56;100.00;101830.50;5068974;28;45620;-73
2022/12/07 09:19:36;;;;;;;;;34.25;23.25;;;;;6.54;100.00;101826.88;5068370;28;45670;-73
2022/12/07 09:22:02;;;;;;;;;30.25;25.50;;;;;6.63;100.00;101836.88;5068676;28;45719;-73
2022/12/07 09:24:28;;;;;;;;;31.00;24.50;;;;;6.62;100.00;101827.22;5071930;28;47570;-73
2022/12/07 09:26:53;;;;;;;;;24.50;21.50;;;;;6.69;100.00;101840.66;5072834;28;45600;-73
2022/12/07 09:29:18;;;;;;;;;26.75;19.75;;;;;6.71;100.00;101822.34;5072383;28;57230;-74
2022/12/07 09:31:44;;;;;;;;;24.50;22.50;;;;;6.74;100.00;101835.63;5072070;28;47495;-73
2022/12/07 09:34:09;;;;;;;;;31.00;22.25;;;;;6.81;100.00;101833.31;5072834;28;62284;-74
2022/12/07 09:36:34;;;;;;;;;27.00;18.25;;;;;6.74;100.00;101830.38;5064630;28;45593;-74
2022/12/07 09:39:00;;;;;;;;;31.00;21.50;;;;;6.75;100.00;101834.78;5072553;28;45733;-74
2022/12/07 09:41:27;;;;;;;;;23.25;20.50;;;;;6.70;100.00;101831.94;5070317;28;45413;-73
2022/12/07 09:43:53;;;;;;;;;24.25;22.00;;;;;6.74;100.00;101839.13;5074324;28;46224;-74
2022/12/07 09:46:20;;;;;;;;;27.00;25.25;;;;;6.74;100.00;101823.38;5057749;28;45545;-73
2022/12/07 09:48:45;;;;;;;;;30.25;23.50;;;;;6.74;100.00;101830.38;5070422;28;45534;-74
2022/12/07 09:51:20;;;;;;;;;25.50;21.25;;;;;6.71;100.00;101831.16;5071349;28;45494;-74
2022/12/07 09:53:46;;;;;;;;;17.50;14.50;;;;;6.62;100.00;101822.88;5053698;28;47765;-74
2022/12/07 09:56:14;;;;;;;;;30.25;20.50;;;;;6.55;100.00;101813.84;5071346;28;45796;-73
2022/12/07 09:58:39;;;;;;;;;25.50;21.50;;;;;6.55;100.00;101813.84;5057196;28;45426;-73
2022/12/07 10:01:07;;;;;;;;;35.00;20.75;;;;;6.62;100.00;101820.25;5073879;28;55202;-73
2022/12/07 10:03:35;;;;;;;;;26.00;20.00;;;;;6.63;100.00;101810.66;5069668;28;46308;-74
2022/12/07 10:06:01;;;;;;;;;30.25;21.75;;;;;6.77;100.00;101823.53;5073884;28;45435;-73
2022/12/07 10:08:26;;;;;;;;;31.75;24.75;;;;;6.80;100.00;101814.88;5053365;28;45377;-74
2022/12/07 10:10:56;;;;;;;;;27.00;23.75;;;;;6.88;100.00;101818.72;5071422;28;45384;-73
2022/12/07 10:13:34;;;;;;;;;25.75;21.00;;;;;6.98;100.00;101820.91;5070482;28;45802;-73
2022/12/07 10:15:59;;;;;;;;;28.25;23.50;;;;;7.02;100.00;101817.53;5071092;28;45614;-73
2022/12/07 10:18:40;;;;;;;;;23.25;19.50;;;;;7.09;100.00;101816.09;5067106;28;50257;-73
2022/12/07 10:21:16;;;;;;;;;23.75;19.50;;;;;7.13;100.00;101817.09;5046730;28;45419;-74
2022/12/07 10:24:01;;;;;;;;;27.00;22.50;;;;;7.13;100.00;101815.38;5072843;28;46177;-73
2022/12/07 10:26:36;;;;;;;;;25.50;23.75;;;;;7.11;100.00;101800.41;5072975;28;45513;-73
2022/12/07 10:29:17;;;;;;;;;26.25;22.25;;;;;7.09;100.00;101808.22;5072144;28;45455;-74
2022/12/07 10:31:44;;;;;;;;;30.50;21.75;;;;;7.04;100.00;101800.16;5056542;28;45770;-74
2022/12/07 10:34:29;;;;;;;;;36.00;24.00;;;;;7.01;100.00;101800.00;5070764;28;46444;-73
2022/12/07 10:37:09;;;;;;;;;25.00;20.25;;;;;7.09;100.00;101795.97;5060554;28;45555;-74
2022/12/07 10:39:46;;;;;;;;;33.75;23.00;;;;;7.10;100.00;101783.75;5072531;28;45596;-73
2022/12/07 10:42:29;;;;;;;;;30.75;22.50;;;;;7.22;100.00;101785.97;5053529;28;45634;-73
2022/12/07 10:45:09;;;;;;;;;25.50;22.25;;;;;7.30;100.00;101793.31;5071324;28;46486;-72
2022/12/07 10:47:45;;;;;;;;;33.75;22.50;;;;;7.38;100.00;101779.56;5066810;28;45518;-74
2022/12/07 10:50:24;;;;;;;;;28.00;26.00;;;;;7.44;100.00;101772.81;5073748;28;45311;-73
2022/12/07 10:53:08;;;;;;;;;30.25;24.25;;;;;7.45;100.00;101755.31;5056042;28;45702;-72
2022/12/07 10:56:07;;;;;;;;;31.00;26.00;;;;;7.65;100.00;101761.34;5069095;28;46790;-73
2022/12/07 10:58:54;;;;;;;;;36.50;25.00;;;;;7.78;100.00;101756.63;5071529;28;45687;-72
2022/12/07 11:01:57;;;;;;;;;30.25;23.25;;;;;7.93;100.00;101751.00;5055722;28;45483;-72
2022/12/07 11:04:22;;;;;;;;;36.25;27.75;;;;;8.03;100.00;101744.34;5079113;28;45670;-72
2022/12/07 11:07:17;;;;;;;;;31.25;23.75;;;;;8.13;100.00;101741.19;5072268;28;47205;-72
2022/12/07 11:09:52;;;;;;;;;37.25;33.50;;;;;8.27;100.00;101739.97;5057057;28;45450;-72
2022/12/07 11:12:31;;;;;;;;;33.00;24.00;;;;;8.37;100.00;101741.22;5077824;28;45494;-72
2022/12/07 11:15:15;;;;;;;;;32.75;26.00;;;;;8.45;100.00;101738.84;5075271;28;45504;-73
2022/12/07 11:17:46;;;;;;;;;41.25;28.00;;;;;8.49;100.00;101727.56;5072961;28;46657;-72
2022/12/07 11:20:24;;;;;;;;;32.75;28.00;;;;;8.51;100.00;101720.59;5073792;28;45454;-73